Thursday, February 22, 2018, 9:45 PM EST
Back to Local

K1P1, Plymouth, Plymouth Municipal Airport

Location: Plymouth, NH, United States Lat: 43.779
Local Time: 9:45 PM EST ( 2:45 GMT) Lon: -71.754
Time Zone: US/Eastern Elev: 505 ft

Show me the last for .
Show Decoded

2018-02-22 21:29 METAR K1P1 230235Z AUTO 00000KT 10SM CLR M05/M07 A3067 RMK AO2 T10461070 =
2018-02-22 21:15 METAR K1P1 230215Z AUTO 00000KT 10SM CLR M04/M07 A3066 RMK AO2 T10371071 =
2018-02-22 20:55 METAR K1P1 230155Z AUTO 00000KT 10SM CLR M03/M07 A3066 RMK AO2 T10351072 =
2018-02-22 20:26 METAR K1P1 230135Z AUTO 00000KT 10SM CLR M03/M08 A3066 RMK AO2 T10321078 =
2018-02-22 20:15 METAR K1P1 230115Z AUTO 00000KT 10SM CLR M02/M08 A3065 RMK AO2 T10221080 =
2018-02-22 19:55 METAR K1P1 230055Z AUTO 00000KT 10SM CLR M01/M08 A3064 RMK AO2 T10151083 =
2018-02-22 19:23 METAR K1P1 230035Z AUTO 00000KT 10SM CLR M01/M09 A3064 RMK AO2 T10101086 =
2018-02-22 19:15 METAR K1P1 230015Z AUTO 32003KT 10SM CLR M01/M09 A3064 RMK AO2 T10101088 =
2018-02-22 18:55 METAR K1P1 222355Z AUTO 00000KT 10SM CLR 00/M09 A3064 RMK AO2 T10041088 10005
                 21011 =
2018-02-22 18:29 METAR K1P1 222335Z AUTO 30004KT 10SM SCT110 00/M09 A3064 RMK AO2 T00001089 =
2018-02-22 18:15 METAR K1P1 222315Z AUTO 28003KT 10SM BKN100 00/M09 A3064 RMK AO2 T00031092 =
2018-02-22 17:55 METAR K1P1 222255Z AUTO 28003KT 10SM OVC100 00/M09 A3064 RMK AO2 T00041093 =
2018-02-22 17:28 METAR K1P1 222235Z AUTO 28006KT 10SM SCT070 BKN090 OVC110 01/M09 A3064 RMK AO2
                 T00051093 =
2018-02-22 17:15 METAR K1P1 222215Z AUTO 28005KT 10SM BKN070 OVC080 01/M09 A3063 RMK AO2
                 T00051087 =
2018-02-22 16:55 METAR K1P1 222155Z AUTO 27004KT 10SM OVC075 01/M08 A3064 RMK AO2 T00051083 =
2018-02-22 16:25 METAR K1P1 222135Z AUTO 28007KT 10SM SCT070 OVC075 00/M07 A3065 RMK AO2
                 T00021066 =
2018-02-22 16:15 METAR K1P1 222115Z AUTO 28006KT 10SM OVC070 00/M06 A3064 RMK AO2 T00011057 =
2018-02-22 15:55 METAR K1P1 222055Z AUTO 28006KT 10SM OVC070 00/M05 A3063 RMK AO2 T00001051 =
2018-02-22 15:27 METAR K1P1 222035Z AUTO 28007KT 10SM OVC070 00/M05 A3063 RMK AO2 T00001053 =
2018-02-22 15:15 METAR K1P1 222015Z AUTO 28006KT 10SM OVC060 00/M05 A3063 RMK AO2 T00001054 =
2018-02-22 14:55 METAR K1P1 221955Z AUTO 26005KT 10SM SCT033 OVC060 00/M04 A3062 RMK AO2
                 T00001043 =
2018-02-22 14:25 METAR K1P1 221935Z AUTO 25004KT 10SM OVC033 00/M04 A3062 RMK AO2 T10011040 =
2018-02-22 14:15 METAR K1P1 221915Z AUTO 28004KT 10SM SCT014 SCT030 OVC035 M01/M03 A3063 RMK AO2
                 T10061035 =
2018-02-22 13:55 METAR K1P1 221855Z AUTO 27005KT 1 3/4SM -SN OVC012 M01/M03 A3062 RMK AO2
                 T10101027 =
2018-02-22 13:29 METAR K1P1 221835Z AUTO 31007KT 2SM -SN OVC013 M01/M03 A3063 RMK AO2 T10091027 =
2018-02-22 13:15 METAR K1P1 221815Z AUTO 30005KT 1 3/4SM -SN OVC013 M01/M03 A3063 RMK AO2
                 T10071030 =
2018-02-22 12:55 METAR K1P1 221755Z AUTO 28005KT 2 1/2SM -SN BKN013 OVC018 00/M04 A3064 RMK AO2
                 T10011036 10012 21001 =
2018-02-22 12:23 METAR K1P1 221735Z AUTO 28007KT 5SM -SN SCT019 BKN026 OVC041 01/M06 A3064 RMK
                 AO2 T00091060 =
2018-02-22 12:15 METAR K1P1 221715Z AUTO 28005KT 10SM SCT033 SCT042 OVC050 01/M08 A3065 RMK AO2
                 T00091079 =
2018-02-22 11:55 METAR K1P1 221655Z AUTO 28005KT 10SM BKN050 OVC060 01/M08 A3066 RMK AO2
                 T00101084 =
2018-02-22 11:29 METAR K1P1 221635Z AUTO 28008KT 10SM OVC065 01/M08 A3067 RMK AO2 T00111080 =
2018-02-22 11:15 METAR K1P1 221615Z AUTO 28007KT 10SM OVC065 01/M08 A3067 RMK AO2 T00111077 =
2018-02-22 10:55 METAR K1P1 221555Z AUTO 28004KT 10SM BKN075 OVC085 01/M08 A3065 RMK AO2
                 T00111077 =
2018-02-22 10:25 METAR K1P1 221535Z AUTO 29003KT 10SM SCT080 OVC085 01/M08 A3064 RMK AO2
                 T00101076 =
2018-02-22 10:15 METAR K1P1 221515Z AUTO 29005KT 10SM BKN090 OVC120 01/M08 A3065 RMK AO2
                 T00101080 =
2018-02-22 09:55 METAR K1P1 221455Z AUTO 29003KT 10SM OVC100 01/M08 A3065 RMK AO2 T00091084 =
2018-02-22 09:28 METAR K1P1 221435Z AUTO 28004KT 10SM OVC100 01/M08 A3066 RMK AO2 T00081082 =
2018-02-22 09:15 METAR K1P1 221415Z AUTO 27007KT 10SM OVC110 01/M08 A3066 RMK AO2 T00061084 =
2018-02-22 08:55 METAR K1P1 221355Z AUTO 28006KT 10SM OVC110 01/M08 A3065 RMK AO2 T00051080 =
2018-02-22 08:15 METAR K1P1 221315Z AUTO 29003KT 10SM OVC100 00/M07 A3063 RMK AO2 T00011072 =
2018-02-22 07:55 METAR K1P1 221255Z AUTO 28003KT 10SM OVC100 00/M07 A3063 RMK AO2 T00011073 =
2018-02-22 07:27 METAR K1P1 221235Z AUTO 26004KT 10SM OVC100 00/M07 A3062 RMK AO2 T00011074 =
2018-02-22 07:15 METAR K1P1 221215Z AUTO 28004KT 10SM OVC110 00/M07 A3062 RMK AO2 T00011073 =
2018-02-22 06:55 METAR K1P1 221155Z AUTO 28004KT 10SM SCT110 00/M07 A3061 RMK AO2 T00011074 10028
                 20001 =
2018-02-22 06:27 METAR K1P1 221135Z AUTO 30005KT 10SM BKN110 00/M07 A3059 RMK AO2 T00021072 =
2018-02-22 06:15 METAR K1P1 221115Z AUTO 28007KT 10SM OVC110 00/M07 A3059 RMK AO2 T00031073 =
2018-02-22 05:55 METAR K1P1 221055Z AUTO 29006KT 10SM OVC110 00/M07 A3059 RMK AO2 T00041072 =
2018-02-22 05:23 METAR K1P1 221035Z AUTO 27005KT 10SM OVC110 00/M07 A3059 RMK AO2 T00031068 =
2018-02-22 05:15 METAR K1P1 221015Z AUTO 27007KT 10SM OVC110 01/M07 A3058 RMK AO2 T00051066 =
2018-02-22 04:55 METAR K1P1 220955Z AUTO 28004KT 10SM SCT100 00/M06 A3058 RMK AO2 T00031063 =
2018-02-22 04:26 METAR K1P1 220935Z AUTO 29006KT 10SM CLR 01/M06 A3056 RMK AO2 T00051060 =
2018-02-22 04:15 METAR K1P1 220915Z AUTO 31003KT 10SM SCT100 01/M06 A3057 RMK AO2 T00081062 =
2018-02-22 03:55 METAR K1P1 220855Z AUTO 31005KT 10SM BKN100 01/M06 A3056 RMK AO2 T00101061 =
2018-02-22 03:28 METAR K1P1 220835Z AUTO 31004KT 10SM SCT100 01/M06 A3056 RMK AO2 T00101061 =
2018-02-22 03:15 METAR K1P1 220815Z AUTO 30005KT 10SM CLR 01/M06 A3054 RMK AO2 T00121063 =
2018-02-22 02:55 METAR K1P1 220755Z AUTO 29005KT 10SM CLR 02/M07 A3055 RMK AO2 T00161070 =
2018-02-22 02:26 METAR K1P1 220735Z AUTO 31006KT 10SM CLR 02/M06 A3054 RMK AO2 T00181061 =
2018-02-22 02:15 METAR K1P1 220715Z AUTO 30007KT 10SM SCT085 02/M05 A3053 RMK AO2 T00211053 =
2018-02-22 01:55 METAR K1P1 220655Z AUTO 29007KT 10SM OVC085 03/M05 A3052 RMK AO2 T00251048 =
2018-02-22 01:34 METAR K1P1 220635Z AUTO 29009G14KT 10SM OVC085 03/M04 A3051 RMK AO2 T00261044 =
2018-02-22 01:15 METAR K1P1 220615Z AUTO 29011G15KT 10SM OVC085 03/M04 A3050 RMK AO2 T00251042 =
2018-02-22 00:55 METAR K1P1 220555Z AUTO 28011G16KT 10SM BKN085 03/M04 A3050 RMK AO2 T00281044
                 10092 20028 =
2018-02-22 00:24 METAR K1P1 220535Z AUTO 29008G15KT 10SM BKN085 03/M04 A3049 RMK AO2 T00301043 =
2018-02-22 00:15 METAR K1P1 220515Z AUTO 28010G15KT 10SM SCT085 03/M04 A3048 RMK AO2 T00321042 =
2018-02-21 23:55 METAR K1P1 220455Z AUTO 30009KT 10SM SCT085 03/M04 A3046 RMK AO2 T00341038 =
2018-02-21 23:33 METAR K1P1 220435Z AUTO 28010G16KT 10SM CLR 04/M03 A3045 RMK AO2 T00361035 =
2018-02-21 23:15 METAR K1P1 220415Z AUTO 29009G17KT 10SM CLR 05/M03 A3043 RMK AO2 T00451033 =
2018-02-21 22:55 METAR K1P1 220355Z AUTO 32013KT 10SM SCT080 05/M02 A3041 RMK AO2 T00491024
                 401991005 =
2018-02-21 22:25 METAR K1P1 220335Z AUTO 31007KT 10SM OVC080 06/M02 A3040 RMK AO2 T00551023 =
2018-02-21 22:15 METAR K1P1 220315Z AUTO 31010G15KT 10SM BKN080 06/M02 A3039 RMK AO2 T00611021 =
2018-02-21 21:55 METAR K1P1 220255Z AUTO 32005G08KT 10SM SCT080 07/M01 A3037 RMK AO2 T00661012 =

Support USWX by starting your Amazon purchase here.